Terminal Aerodrome Forecast
Issued by NWS Twin Cities, MN

Home | Current Version | Previous Version | Text Only | Print | Product List | Glossary On
Versions: 1 2 3 4 5 6 7 8 9 10 11 12 13 14
000
FTUS43 KMPX 242320
TAFEAU
TAF
KEAU 242320Z 2500/2524 06008KT P6SM SCT035 BKN045
     FM250200 VRB03KT P6SM SCT070
     FM250900 06002KT 2SM BR SCT015 BKN025
     FM251400 13005KT P6SM SCT025 BKN035
     FM252100 17007KT P6SM BKN050=

USA.gov is the U.S. government's official web portal to all federal, state and local government web resources and services.